sensor_id;sensor_type;location;lat;lon;timestamp;P1;durP1;ratioP1;P2;durP2;ratioP2
359;SDS011;168;48.872;9.226;2023-09-07T00:02:00;9.33;;;6.87;;
359;SDS011;168;48.872;9.226;2023-09-07T00:04:28;8.23;;;6.40;;
359;SDS011;168;48.872;9.226;2023-09-07T00:06:55;7.90;;;7.07;;
359;SDS011;168;48.872;9.226;2023-09-07T00:09:24;7.83;;;7.10;;
359;SDS011;168;48.872;9.226;2023-09-07T00:11:53;7.90;;;7.17;;
359;SDS011;168;48.872;9.226;2023-09-07T00:14:21;7.97;;;7.17;;
359;SDS011;168;48.872;9.226;2023-09-07T00:16:48;8.53;;;7.63;;
359;SDS011;168;48.872;9.226;2023-09-07T00:19:16;9.10;;;6.50;;
359;SDS011;168;48.872;9.226;2023-09-07T00:21:43;7.87;;;7.03;;
359;SDS011;168;48.872;9.226;2023-09-07T00:24:11;7.63;;;6.90;;
359;SDS011;168;48.872;9.226;2023-09-07T00:26:38;7.40;;;6.33;;
359;SDS011;168;48.872;9.226;2023-09-07T00:29:07;6.93;;;6.20;;
359;SDS011;168;48.872;9.226;2023-09-07T00:31:35;7.83;;;6.70;;
359;SDS011;168;48.872;9.226;2023-09-07T00:34:02;8.50;;;6.90;;
359;SDS011;168;48.872;9.226;2023-09-07T00:36:29;7.40;;;6.70;;
359;SDS011;168;48.872;9.226;2023-09-07T00:38:57;7.17;;;6.50;;
359;SDS011;168;48.872;9.226;2023-09-07T00:41:24;8.20;;;7.00;;
359;SDS011;168;48.872;9.226;2023-09-07T00:43:52;6.97;;;6.37;;
359;SDS011;168;48.872;9.226;2023-09-07T00:46:20;9.00;;;6.97;;
359;SDS011;168;48.872;9.226;2023-09-07T00:48:48;7.50;;;6.80;;
359;SDS011;168;48.872;9.226;2023-09-07T00:51:16;7.63;;;6.83;;
359;SDS011;168;48.872;9.226;2023-09-07T00:53:43;7.40;;;6.70;;
359;SDS011;168;48.872;9.226;2023-09-07T00:56:11;8.50;;;6.20;;
359;SDS011;168;48.872;9.226;2023-09-07T00:58:38;8.07;;;5.90;;
359;SDS011;168;48.872;9.226;2023-09-07T01:01:06;6.70;;;6.10;;
359;SDS011;168;48.872;9.226;2023-09-07T01:03:35;9.03;;;6.67;;
359;SDS011;168;48.872;9.226;2023-09-07T01:06:03;6.97;;;6.27;;
359;SDS011;168;48.872;9.226;2023-09-07T01:08:35;6.83;;;6.20;;
359;SDS011;168;48.872;9.226;2023-09-07T01:11:12;7.27;;;5.93;;
359;SDS011;168;48.872;9.226;2023-09-07T01:13:39;6.90;;;6.20;;
359;SDS011;168;48.872;9.226;2023-09-07T01:16:07;7.10;;;6.40;;
359;SDS011;168;48.872;9.226;2023-09-07T01:18:40;7.40;;;6.73;;
359;SDS011;168;48.872;9.226;2023-09-07T01:21:08;8.40;;;6.17;;
359;SDS011;168;48.872;9.226;2023-09-07T01:23:40;7.10;;;6.40;;
359;SDS011;168;48.872;9.226;2023-09-07T01:26:08;7.80;;;7.03;;
359;SDS011;168;48.872;9.226;2023-09-07T01:28:36;6.50;;;5.90;;
359;SDS011;168;48.872;9.226;2023-09-07T01:31:04;7.27;;;6.43;;
359;SDS011;168;48.872;9.226;2023-09-07T01:33:32;7.40;;;6.20;;
359;SDS011;168;48.872;9.226;2023-09-07T01:35:59;6.60;;;5.90;;
359;SDS011;168;48.872;9.226;2023-09-07T01:38:27;6.23;;;5.63;;
359;SDS011;168;48.872;9.226;2023-09-07T01:40:56;7.93;;;6.97;;
359;SDS011;168;48.872;9.226;2023-09-07T01:43:24;7.77;;;6.30;;
359;SDS011;168;48.872;9.226;2023-09-07T01:45:51;7.00;;;6.30;;
359;SDS011;168;48.872;9.226;2023-09-07T01:48:18;7.40;;;6.57;;
359;SDS011;168;48.872;9.226;2023-09-07T01:50:46;7.03;;;6.33;;
359;SDS011;168;48.872;9.226;2023-09-07T01:53:13;7.20;;;6.00;;
359;SDS011;168;48.872;9.226;2023-09-07T01:55:40;7.40;;;6.70;;
359;SDS011;168;48.872;9.226;2023-09-07T01:58:09;8.00;;;6.50;;
359;SDS011;168;48.872;9.226;2023-09-07T02:00:37;6.83;;;5.97;;
359;SDS011;168;48.872;9.226;2023-09-07T02:03:04;6.40;;;5.80;;
359;SDS011;168;48.872;9.226;2023-09-07T02:05:31;6.97;;;6.37;;
359;SDS011;168;48.872;9.226;2023-09-07T02:07:58;6.87;;;6.20;;
359;SDS011;168;48.872;9.226;2023-09-07T02:10:26;7.23;;;6.53;;
359;SDS011;168;48.872;9.226;2023-09-07T02:12:53;7.73;;;6.87;;
359;SDS011;168;48.872;9.226;2023-09-07T02:15:23;6.87;;;6.27;;
359;SDS011;168;48.872;9.226;2023-09-07T02:17:51;7.83;;;7.13;;
359;SDS011;168;48.872;9.226;2023-09-07T02:20:20;6.93;;;6.23;;
359;SDS011;168;48.872;9.226;2023-09-07T02:22:47;7.10;;;6.40;;
359;SDS011;168;48.872;9.226;2023-09-07T02:25:15;6.00;;;5.50;;
359;SDS011;168;48.872;9.226;2023-09-07T02:27:42;6.70;;;5.97;;
359;SDS011;168;48.872;9.226;2023-09-07T02:30:10;8.03;;;5.93;;
359;SDS011;168;48.872;9.226;2023-09-07T02:32:40;7.07;;;6.20;;
359;SDS011;168;48.872;9.226;2023-09-07T02:35:08;8.77;;;6.20;;
359;SDS011;168;48.872;9.226;2023-09-07T02:37:36;7.03;;;6.43;;
359;SDS011;168;48.872;9.226;2023-09-07T02:40:04;7.37;;;6.67;;
359;SDS011;168;48.872;9.226;2023-09-07T02:42:34;7.10;;;6.40;;
359;SDS011;168;48.872;9.226;2023-09-07T02:45:03;7.20;;;6.20;;
359;SDS011;168;48.872;9.226;2023-09-07T02:47:30;7.87;;;6.90;;
359;SDS011;168;48.872;9.226;2023-09-07T02:49:59;7.53;;;6.77;;
359;SDS011;168;48.872;9.226;2023-09-07T02:52:27;7.03;;;6.20;;
359;SDS011;168;48.872;9.226;2023-09-07T02:54:54;6.70;;;6.03;;
359;SDS011;168;48.872;9.226;2023-09-07T02:57:21;7.77;;;6.40;;
359;SDS011;168;48.872;9.226;2023-09-07T02:59:49;7.20;;;6.50;;
359;SDS011;168;48.872;9.226;2023-09-07T03:02:18;6.87;;;6.17;;
359;SDS011;168;48.872;9.226;2023-09-07T03:04:45;7.20;;;6.50;;
359;SDS011;168;48.872;9.226;2023-09-07T03:07:14;7.67;;;6.97;;
359;SDS011;168;48.872;9.226;2023-09-07T03:09:41;7.70;;;6.80;;
359;SDS011;168;48.872;9.226;2023-09-07T03:12:10;7.20;;;6.20;;
359;SDS011;168;48.872;9.226;2023-09-07T03:14:37;7.40;;;6.70;;
359;SDS011;168;48.872;9.226;2023-09-07T03:17:04;9.53;;;7.80;;
359;SDS011;168;48.872;9.226;2023-09-07T03:19:32;7.60;;;6.90;;
359;SDS011;168;48.872;9.226;2023-09-07T03:21:59;7.67;;;6.87;;
359;SDS011;168;48.872;9.226;2023-09-07T03:24:30;6.90;;;6.30;;
359;SDS011;168;48.872;9.226;2023-09-07T03:26:58;7.60;;;6.63;;
359;SDS011;168;48.872;9.226;2023-09-07T03:29:25;7.63;;;6.83;;
359;SDS011;168;48.872;9.226;2023-09-07T03:31:53;7.30;;;6.60;;
359;SDS011;168;48.872;9.226;2023-09-07T03:34:20;9.83;;;7.17;;
359;SDS011;168;48.872;9.226;2023-09-07T03:36:49;8.70;;;7.80;;
359;SDS011;168;48.872;9.226;2023-09-07T03:39:16;8.00;;;7.20;;
359;SDS011;168;48.872;9.226;2023-09-07T03:41:45;7.27;;;6.57;;
359;SDS011;168;48.872;9.226;2023-09-07T03:44:13;7.77;;;7.07;;
359;SDS011;168;48.872;9.226;2023-09-07T03:46:41;6.90;;;6.23;;
359;SDS011;168;48.872;9.226;2023-09-07T03:49:08;8.83;;;7.13;;
359;SDS011;168;48.872;9.226;2023-09-07T03:51:35;7.10;;;6.40;;
359;SDS011;168;48.872;9.226;2023-09-07T03:54:03;7.50;;;6.80;;
359;SDS011;168;48.872;9.226;2023-09-07T03:56:30;7.73;;;7.00;;
359;SDS011;168;48.872;9.226;2023-09-07T03:58:59;7.27;;;6.57;;
359;SDS011;168;48.872;9.226;2023-09-07T04:01:28;7.13;;;6.53;;
359;SDS011;168;48.872;9.226;2023-09-07T04:03:58;7.50;;;6.80;;
359;SDS011;168;48.872;9.226;2023-09-07T04:57:33;8.63;;;7.57;;
359;SDS011;168;48.872;9.226;2023-09-07T05:00:02;8.17;;;7.47;;
359;SDS011;168;48.872;9.226;2023-09-07T05:02:30;8.40;;;7.60;;
359;SDS011;168;48.872;9.226;2023-09-07T05:04:58;8.47;;;7.67;;
359;SDS011;168;48.872;9.226;2023-09-07T05:07:25;7.77;;;6.97;;
359;SDS011;168;48.872;9.226;2023-09-07T05:09:52;7.70;;;7.00;;
359;SDS011;168;48.872;9.226;2023-09-07T05:12:20;7.70;;;7.00;;
359;SDS011;168;48.872;9.226;2023-09-07T05:14:49;7.60;;;6.90;;
359;SDS011;168;48.872;9.226;2023-09-07T05:17:16;7.77;;;7.03;;
359;SDS011;168;48.872;9.226;2023-09-07T05:19:43;8.50;;;7.40;;
359;SDS011;168;48.872;9.226;2023-09-07T05:22:11;8.17;;;7.30;;
359;SDS011;168;48.872;9.226;2023-09-07T05:24:38;8.10;;;7.00;;
359;SDS011;168;48.872;9.226;2023-09-07T05:27:09;9.30;;;7.57;;
359;SDS011;168;48.872;9.226;2023-09-07T05:29:47;8.07;;;7.10;;
359;SDS011;168;48.872;9.226;2023-09-07T05:32:18;8.17;;;7.37;;
359;SDS011;168;48.872;9.226;2023-09-07T05:34:46;11.67;;;8.37;;
359;SDS011;168;48.872;9.226;2023-09-07T05:37:14;8.97;;;8.07;;
359;SDS011;168;48.872;9.226;2023-09-07T05:39:42;9.50;;;8.30;;
359;SDS011;168;48.872;9.226;2023-09-07T05:42:09;9.10;;;8.20;;
359;SDS011;168;48.872;9.226;2023-09-07T05:44:38;10.00;;;9.00;;
359;SDS011;168;48.872;9.226;2023-09-07T05:47:07;10.00;;;9.00;;
359;SDS011;168;48.872;9.226;2023-09-07T05:49:36;8.77;;;7.97;;
359;SDS011;168;48.872;9.226;2023-09-07T05:52:07;7.60;;;6.90;;
359;SDS011;168;48.872;9.226;2023-09-07T05:54:37;7.90;;;7.10;;
359;SDS011;168;48.872;9.226;2023-09-07T05:57:07;8.13;;;7.30;;
359;SDS011;168;48.872;9.226;2023-09-07T05:59:35;9.73;;;7.53;;
359;SDS011;168;48.872;9.226;2023-09-07T06:02:26;8.90;;;7.63;;
359;SDS011;168;48.872;9.226;2023-09-07T06:04:58;8.33;;;7.47;;
359;SDS011;168;48.872;9.226;2023-09-07T06:07:26;9.30;;;8.40;;
359;SDS011;168;48.872;9.226;2023-09-07T06:09:55;7.20;;;6.50;;
359;SDS011;168;48.872;9.226;2023-09-07T06:12:27;8.80;;;8.00;;
359;SDS011;168;48.872;9.226;2023-09-07T06:14:57;8.93;;;8.03;;
359;SDS011;168;48.872;9.226;2023-09-07T06:17:27;10.03;;;8.33;;
359;SDS011;168;48.872;9.226;2023-09-07T06:19:56;8.60;;;7.20;;
359;SDS011;168;48.872;9.226;2023-09-07T06:22:25;8.70;;;7.43;;
359;SDS011;168;48.872;9.226;2023-09-07T06:24:58;8.63;;;7.83;;
359;SDS011;168;48.872;9.226;2023-09-07T06:27:26;8.07;;;7.37;;
359;SDS011;168;48.872;9.226;2023-09-07T06:29:55;8.27;;;7.47;;
359;SDS011;168;48.872;9.226;2023-09-07T06:32:27;9.27;;;7.23;;
359;SDS011;168;48.872;9.226;2023-09-07T06:34:55;8.70;;;7.90;;
359;SDS011;168;48.872;9.226;2023-09-07T06:37:23;8.40;;;7.70;;
359;SDS011;168;48.872;9.226;2023-09-07T06:39:51;9.07;;;7.90;;
359;SDS011;168;48.872;9.226;2023-09-07T06:42:18;8.63;;;7.83;;
359;SDS011;168;48.872;9.226;2023-09-07T06:44:45;9.27;;;8.37;;
359;SDS011;168;48.872;9.226;2023-09-07T06:47:13;11.90;;;8.93;;
359;SDS011;168;48.872;9.226;2023-09-07T06:49:42;9.60;;;8.70;;
359;SDS011;168;48.872;9.226;2023-09-07T06:52:09;9.70;;;8.80;;
359;SDS011;168;48.872;9.226;2023-09-07T06:54:36;9.77;;;8.87;;
359;SDS011;168;48.872;9.226;2023-09-07T06:57:06;9.73;;;7.87;;
359;SDS011;168;48.872;9.226;2023-09-07T06:59:33;10.10;;;9.10;;
359;SDS011;168;48.872;9.226;2023-09-07T07:02:00;8.40;;;7.50;;
359;SDS011;168;48.872;9.226;2023-09-07T07:04:30;9.77;;;8.87;;
359;SDS011;168;48.872;9.226;2023-09-07T07:06:58;9.80;;;8.93;;
359;SDS011;168;48.872;9.226;2023-09-07T07:09:26;9.33;;;8.50;;
359;SDS011;168;48.872;9.226;2023-09-07T07:11:55;9.00;;;7.87;;
359;SDS011;168;48.872;9.226;2023-09-07T07:14:22;9.03;;;8.13;;
359;SDS011;168;48.872;9.226;2023-09-07T07:16:49;8.83;;;8.03;;
359;SDS011;168;48.872;9.226;2023-09-07T07:19:17;11.07;;;9.20;;
359;SDS011;168;48.872;9.226;2023-09-07T07:21:44;8.40;;;7.70;;
359;SDS011;168;48.872;9.226;2023-09-07T07:24:13;9.20;;;8.30;;
359;SDS011;168;48.872;9.226;2023-09-07T07:26:40;11.17;;;9.87;;
359;SDS011;168;48.872;9.226;2023-09-07T07:29:08;9.20;;;8.30;;
359;SDS011;168;48.872;9.226;2023-09-07T07:31:35;10.70;;;9.70;;
359;SDS011;168;48.872;9.226;2023-09-07T07:34:03;10.60;;;9.60;;
359;SDS011;168;48.872;9.226;2023-09-07T07:36:30;9.77;;;8.87;;
359;SDS011;168;48.872;9.226;2023-09-07T07:38:57;9.83;;;8.93;;
359;SDS011;168;48.872;9.226;2023-09-07T07:41:26;9.90;;;9.00;;
359;SDS011;168;48.872;9.226;2023-09-07T07:43:53;9.10;;;8.23;;
359;SDS011;168;48.872;9.226;2023-09-07T07:46:21;10.33;;;8.53;;
359;SDS011;168;48.872;9.226;2023-09-07T07:48:48;9.20;;;8.30;;
359;SDS011;168;48.872;9.226;2023-09-07T07:51:15;10.03;;;9.03;;
359;SDS011;168;48.872;9.226;2023-09-07T07:53:43;8.67;;;7.77;;
359;SDS011;168;48.872;9.226;2023-09-07T07:56:16;9.37;;;8.57;;
359;SDS011;168;48.872;9.226;2023-09-07T07:58:46;8.50;;;7.70;;
359;SDS011;168;48.872;9.226;2023-09-07T08:01:14;8.00;;;7.30;;
359;SDS011;168;48.872;9.226;2023-09-07T08:03:42;7.90;;;7.20;;
359;SDS011;168;48.872;9.226;2023-09-07T08:06:09;8.87;;;7.87;;
359;SDS011;168;48.872;9.226;2023-09-07T08:08:37;9.30;;;7.60;;
359;SDS011;168;48.872;9.226;2023-09-07T08:11:05;8.60;;;7.80;;
359;SDS011;168;48.872;9.226;2023-09-07T08:13:33;8.50;;;7.70;;
359;SDS011;168;48.872;9.226;2023-09-07T08:16:02;8.30;;;7.50;;
359;SDS011;168;48.872;9.226;2023-09-07T08:18:31;8.73;;;7.87;;
359;SDS011;168;48.872;9.226;2023-09-07T08:20:59;9.00;;;8.20;;
359;SDS011;168;48.872;9.226;2023-09-07T08:23:27;8.80;;;8.03;;
359;SDS011;168;48.872;9.226;2023-09-07T08:25:54;8.07;;;7.37;;
359;SDS011;168;48.872;9.226;2023-09-07T08:28:22;8.87;;;8.07;;
359;SDS011;168;48.872;9.226;2023-09-07T08:30:51;9.67;;;8.67;;
359;SDS011;168;48.872;9.226;2023-09-07T08:33:21;8.70;;;7.90;;
359;SDS011;168;48.872;9.226;2023-09-07T08:35:54;9.00;;;8.20;;
359;SDS011;168;48.872;9.226;2023-09-07T08:38:23;8.73;;;7.93;;
359;SDS011;168;48.872;9.226;2023-09-07T08:40:53;8.67;;;7.80;;
359;SDS011;168;48.872;9.226;2023-09-07T08:43:21;8.43;;;7.70;;
359;SDS011;168;48.872;9.226;2023-09-07T08:45:51;8.30;;;7.60;;
359;SDS011;168;48.872;9.226;2023-09-07T08:48:26;8.43;;;7.73;;
359;SDS011;168;48.872;9.226;2023-09-07T08:50:55;8.20;;;7.40;;
359;SDS011;168;48.872;9.226;2023-09-07T08:53:23;7.97;;;7.17;;
359;SDS011;168;48.872;9.226;2023-09-07T08:55:51;8.37;;;7.63;;
359;SDS011;168;48.872;9.226;2023-09-07T08:58:19;8.27;;;7.57;;
359;SDS011;168;48.872;9.226;2023-09-07T09:00:47;9.07;;;7.50;;
359;SDS011;168;48.872;9.226;2023-09-07T09:03:15;9.37;;;8.30;;
359;SDS011;168;48.872;9.226;2023-09-07T09:05:45;9.17;;;8.37;;
359;SDS011;168;48.872;9.226;2023-09-07T09:08:18;9.00;;;8.20;;
359;SDS011;168;48.872;9.226;2023-09-07T09:11:01;9.00;;;8.27;;
359;SDS011;168;48.872;9.226;2023-09-07T09:13:29;9.20;;;8.40;;
359;SDS011;168;48.872;9.226;2023-09-07T09:15:58;8.53;;;7.77;;
359;SDS011;168;48.872;9.226;2023-09-07T09:18:37;9.00;;;8.10;;
359;SDS011;168;48.872;9.226;2023-09-07T09:21:29;8.57;;;7.70;;
359;SDS011;168;48.872;9.226;2023-09-07T09:23:57;10.17;;;9.17;;
359;SDS011;168;48.872;9.226;2023-09-07T09:26:25;8.63;;;7.93;;
359;SDS011;168;48.872;9.226;2023-09-07T09:28:59;8.30;;;7.50;;
359;SDS011;168;48.872;9.226;2023-09-07T09:31:52;9.37;;;8.57;;
359;SDS011;168;48.872;9.226;2023-09-07T09:34:50;8.43;;;7.67;;
359;SDS011;168;48.872;9.226;2023-09-07T09:37:22;7.63;;;6.93;;
359;SDS011;168;48.872;9.226;2023-09-07T09:39:50;8.33;;;7.73;;
359;SDS011;168;48.872;9.226;2023-09-07T09:42:19;8.33;;;7.63;;
359;SDS011;168;48.872;9.226;2023-09-07T09:44:48;8.50;;;7.63;;
359;SDS011;168;48.872;9.226;2023-09-07T09:47:17;8.03;;;7.27;;
359;SDS011;168;48.872;9.226;2023-09-07T09:49:48;8.23;;;7.47;;
359;SDS011;168;48.872;9.226;2023-09-07T09:52:18;8.27;;;7.57;;
359;SDS011;168;48.872;9.226;2023-09-07T09:54:49;8.30;;;7.60;;
359;SDS011;168;48.872;9.226;2023-09-07T09:57:18;9.97;;;9.17;;
359;SDS011;168;48.872;9.226;2023-09-07T09:59:47;9.17;;;8.37;;
359;SDS011;168;48.872;9.226;2023-09-07T10:02:17;10.17;;;9.27;;
359;SDS011;168;48.872;9.226;2023-09-07T10:04:45;7.67;;;7.07;;
359;SDS011;168;48.872;9.226;2023-09-07T10:07:12;9.13;;;8.40;;
359;SDS011;168;48.872;9.226;2023-09-07T10:09:40;10.20;;;9.30;;
359;SDS011;168;48.872;9.226;2023-09-07T10:12:12;9.37;;;8.57;;
359;SDS011;168;48.872;9.226;2023-09-07T10:14:41;9.47;;;8.67;;
359;SDS011;168;48.872;9.226;2023-09-07T10:17:10;9.27;;;8.00;;
359;SDS011;168;48.872;9.226;2023-09-07T10:19:50;9.00;;;8.07;;
359;SDS011;168;48.872;9.226;2023-09-07T10:22:32;7.70;;;7.10;;
359;SDS011;168;48.872;9.226;2023-09-07T10:25:03;7.40;;;6.70;;
359;SDS011;168;48.872;9.226;2023-09-07T10:27:39;8.43;;;7.70;;
359;SDS011;168;48.872;9.226;2023-09-07T10:30:09;7.90;;;7.20;;
359;SDS011;168;48.872;9.226;2023-09-07T10:32:38;8.33;;;7.57;;
359;SDS011;168;48.872;9.226;2023-09-07T10:35:11;8.40;;;7.60;;
359;SDS011;168;48.872;9.226;2023-09-07T10:37:40;8.13;;;7.43;;
359;SDS011;168;48.872;9.226;2023-09-07T10:40:08;9.00;;;8.20;;
359;SDS011;168;48.872;9.226;2023-09-07T10:42:38;8.00;;;7.40;;
359;SDS011;168;48.872;9.226;2023-09-07T10:45:09;8.67;;;7.87;;
359;SDS011;168;48.872;9.226;2023-09-07T10:47:41;8.10;;;7.47;;
359;SDS011;168;48.872;9.226;2023-09-07T10:50:12;7.93;;;7.23;;
359;SDS011;168;48.872;9.226;2023-09-07T10:52:40;7.30;;;6.60;;
359;SDS011;168;48.872;9.226;2023-09-07T10:55:08;7.77;;;6.97;;
359;SDS011;168;48.872;9.226;2023-09-07T10:57:45;7.53;;;6.90;;
359;SDS011;168;48.872;9.226;2023-09-07T11:00:14;7.80;;;7.20;;
359;SDS011;168;48.872;9.226;2023-09-07T11:02:42;7.17;;;6.57;;
359;SDS011;168;48.872;9.226;2023-09-07T11:05:09;8.13;;;7.40;;
359;SDS011;168;48.872;9.226;2023-09-07T11:07:37;7.20;;;6.67;;
359;SDS011;168;48.872;9.226;2023-09-07T11:10:06;7.93;;;7.20;;
359;SDS011;168;48.872;9.226;2023-09-07T11:12:38;8.20;;;7.40;;
359;SDS011;168;48.872;9.226;2023-09-07T11:15:09;7.70;;;7.10;;
359;SDS011;168;48.872;9.226;2023-09-07T11:17:37;7.00;;;6.40;;
359;SDS011;168;48.872;9.226;2023-09-07T11:20:06;8.50;;;7.60;;
359;SDS011;168;48.872;9.226;2023-09-07T11:22:36;7.10;;;6.50;;
359;SDS011;168;48.872;9.226;2023-09-07T11:25:05;8.27;;;7.13;;
359;SDS011;168;48.872;9.226;2023-09-07T11:27:33;7.90;;;7.20;;
359;SDS011;168;48.872;9.226;2023-09-07T11:30:00;7.33;;;6.73;;
359;SDS011;168;48.872;9.226;2023-09-07T11:32:34;7.13;;;6.53;;
359;SDS011;168;48.872;9.226;2023-09-07T11:35:01;6.30;;;5.80;;
359;SDS011;168;48.872;9.226;2023-09-07T11:37:32;7.17;;;6.47;;
359;SDS011;168;48.872;9.226;2023-09-07T11:40:00;6.90;;;6.30;;
359;SDS011;168;48.872;9.226;2023-09-07T11:42:30;8.10;;;7.30;;
359;SDS011;168;48.872;9.226;2023-09-07T11:44:57;7.20;;;6.60;;
359;SDS011;168;48.872;9.226;2023-09-07T11:47:24;7.20;;;6.60;;
359;SDS011;168;48.872;9.226;2023-09-07T11:49:53;7.13;;;6.50;;
359;SDS011;168;48.872;9.226;2023-09-07T11:52:21;7.00;;;6.40;;
359;SDS011;168;48.872;9.226;2023-09-07T11:54:49;7.10;;;6.50;;
359;SDS011;168;48.872;9.226;2023-09-07T11:57:16;6.73;;;6.23;;
359;SDS011;168;48.872;9.226;2023-09-07T11:59:43;6.50;;;5.90;;
359;SDS011;168;48.872;9.226;2023-09-07T12:02:11;7.20;;;6.60;;
359;SDS011;168;48.872;9.226;2023-09-07T12:04:40;6.77;;;6.17;;
359;SDS011;168;48.872;9.226;2023-09-07T12:07:09;7.00;;;6.40;;
359;SDS011;168;48.872;9.226;2023-09-07T12:09:37;7.30;;;6.70;;
359;SDS011;168;48.872;9.226;2023-09-07T12:12:04;7.67;;;7.07;;
359;SDS011;168;48.872;9.226;2023-09-07T12:14:32;7.43;;;6.73;;
359;SDS011;168;48.872;9.226;2023-09-07T12:16:59;6.40;;;5.90;;
359;SDS011;168;48.872;9.226;2023-09-07T12:19:27;7.00;;;6.50;;
359;SDS011;168;48.872;9.226;2023-09-07T12:21:54;7.80;;;7.10;;
359;SDS011;168;48.872;9.226;2023-09-07T12:24:23;6.70;;;6.20;;
359;SDS011;168;48.872;9.226;2023-09-07T12:26:50;6.50;;;5.93;;
359;SDS011;168;48.872;9.226;2023-09-07T12:29:17;8.40;;;7.17;;
359;SDS011;168;48.872;9.226;2023-09-07T12:31:45;6.90;;;6.30;;
359;SDS011;168;48.872;9.226;2023-09-07T12:34:13;6.87;;;6.20;;
359;SDS011;168;48.872;9.226;2023-09-07T12:36:40;6.50;;;6.00;;
359;SDS011;168;48.872;9.226;2023-09-07T12:39:07;6.50;;;6.00;;
359;SDS011;168;48.872;9.226;2023-09-07T12:41:39;6.63;;;6.03;;
359;SDS011;168;48.872;9.226;2023-09-07T12:44:06;6.40;;;5.90;;
359;SDS011;168;48.872;9.226;2023-09-07T12:46:34;6.40;;;5.90;;
359;SDS011;168;48.872;9.226;2023-09-07T12:49:02;6.87;;;5.93;;
359;SDS011;168;48.872;9.226;2023-09-07T12:51:30;6.43;;;5.83;;
359;SDS011;168;48.872;9.226;2023-09-07T12:53:57;6.80;;;6.20;;
359;SDS011;168;48.872;9.226;2023-09-07T12:56:25;7.10;;;6.13;;
359;SDS011;168;48.872;9.226;2023-09-07T12:58:54;6.67;;;6.17;;
359;SDS011;168;48.872;9.226;2023-09-07T13:01:25;6.37;;;5.87;;
359;SDS011;168;48.872;9.226;2023-09-07T13:03:55;6.97;;;6.40;;
359;SDS011;168;48.872;9.226;2023-09-07T13:06:26;6.80;;;6.17;;
359;SDS011;168;48.872;9.226;2023-09-07T13:08:53;6.87;;;6.27;;
359;SDS011;168;48.872;9.226;2023-09-07T13:11:20;6.53;;;5.93;;
359;SDS011;168;48.872;9.226;2023-09-07T13:13:48;6.80;;;6.17;;
359;SDS011;168;48.872;9.226;2023-09-07T13:16:16;6.93;;;6.33;;
359;SDS011;168;48.872;9.226;2023-09-07T13:18:44;6.70;;;6.10;;
359;SDS011;168;48.872;9.226;2023-09-07T13:21:11;6.50;;;5.93;;
359;SDS011;168;48.872;9.226;2023-09-07T13:23:38;6.27;;;5.73;;
359;SDS011;168;48.872;9.226;2023-09-07T13:26:06;6.73;;;6.13;;
359;SDS011;168;48.872;9.226;2023-09-07T13:28:34;6.10;;;5.60;;
359;SDS011;168;48.872;9.226;2023-09-07T13:31:01;7.30;;;6.50;;
359;SDS011;168;48.872;9.226;2023-09-07T13:33:30;6.43;;;5.93;;
359;SDS011;168;48.872;9.226;2023-09-07T13:35:58;6.60;;;6.03;;
359;SDS011;168;48.872;9.226;2023-09-07T13:38:26;6.90;;;6.30;;
359;SDS011;168;48.872;9.226;2023-09-07T13:40:54;6.83;;;5.90;;
359;SDS011;168;48.872;9.226;2023-09-07T13:43:21;6.53;;;5.93;;
359;SDS011;168;48.872;9.226;2023-09-07T13:45:48;6.50;;;5.90;;
359;SDS011;168;48.872;9.226;2023-09-07T13:48:16;6.33;;;5.83;;
359;SDS011;168;48.872;9.226;2023-09-07T13:50:44;6.70;;;6.10;;
359;SDS011;168;48.872;9.226;2023-09-07T13:53:12;6.03;;;5.43;;
359;SDS011;168;48.872;9.226;2023-09-07T13:55:39;6.40;;;5.90;;
359;SDS011;168;48.872;9.226;2023-09-07T13:58:07;5.80;;;5.23;;
359;SDS011;168;48.872;9.226;2023-09-07T14:00:36;6.43;;;5.90;;
359;SDS011;168;48.872;9.226;2023-09-07T14:03:03;6.10;;;5.50;;
359;SDS011;168;48.872;9.226;2023-09-07T14:05:31;6.03;;;5.53;;
359;SDS011;168;48.872;9.226;2023-09-07T14:08:00;6.00;;;5.50;;
359;SDS011;168;48.872;9.226;2023-09-07T14:10:27;5.90;;;5.40;;
359;SDS011;168;48.872;9.226;2023-09-07T14:12:54;6.13;;;5.63;;
359;SDS011;168;48.872;9.226;2023-09-07T14:15:21;6.20;;;5.60;;
359;SDS011;168;48.872;9.226;2023-09-07T14:17:49;5.57;;;5.17;;
359;SDS011;168;48.872;9.226;2023-09-07T14:20:16;5.67;;;5.17;;
359;SDS011;168;48.872;9.226;2023-09-07T14:22:44;6.20;;;5.20;;
359;SDS011;168;48.872;9.226;2023-09-07T14:25:13;5.23;;;4.83;;
359;SDS011;168;48.872;9.226;2023-09-07T14:27:41;6.27;;;5.70;;
359;SDS011;168;48.872;9.226;2023-09-07T14:30:09;6.00;;;5.50;;
359;SDS011;168;48.872;9.226;2023-09-07T14:32:38;6.00;;;5.60;;
359;SDS011;168;48.872;9.226;2023-09-07T14:35:05;5.97;;;5.47;;
359;SDS011;168;48.872;9.226;2023-09-07T14:37:34;5.70;;;5.20;;
359;SDS011;168;48.872;9.226;2023-09-07T14:40:02;5.47;;;4.90;;
359;SDS011;168;48.872;9.226;2023-09-07T14:42:31;6.10;;;4.87;;
359;SDS011;168;48.872;9.226;2023-09-07T14:44:58;6.00;;;5.50;;
359;SDS011;168;48.872;9.226;2023-09-07T14:47:28;5.27;;;4.77;;
359;SDS011;168;48.872;9.226;2023-09-07T14:49:55;5.57;;;5.17;;
359;SDS011;168;48.872;9.226;2023-09-07T14:52:23;5.37;;;4.93;;
359;SDS011;168;48.872;9.226;2023-09-07T14:54:51;5.80;;;5.30;;
359;SDS011;168;48.872;9.226;2023-09-07T14:57:18;5.60;;;5.10;;
359;SDS011;168;48.872;9.226;2023-09-07T14:59:47;5.57;;;5.07;;
359;SDS011;168;48.872;9.226;2023-09-07T15:02:14;5.90;;;5.40;;
359;SDS011;168;48.872;9.226;2023-09-07T15:04:41;5.87;;;5.37;;
359;SDS011;168;48.872;9.226;2023-09-07T15:07:10;5.70;;;4.83;;
359;SDS011;168;48.872;9.226;2023-09-07T15:09:37;5.47;;;4.97;;
359;SDS011;168;48.872;9.226;2023-09-07T15:12:05;5.70;;;5.07;;
359;SDS011;168;48.872;9.226;2023-09-07T15:14:32;5.87;;;5.20;;
359;SDS011;168;48.872;9.226;2023-09-07T15:17:01;5.47;;;4.97;;
359;SDS011;168;48.872;9.226;2023-09-07T15:19:28;5.17;;;4.67;;
359;SDS011;168;48.872;9.226;2023-09-07T15:21:59;5.90;;;4.80;;
359;SDS011;168;48.872;9.226;2023-09-07T15:24:27;6.07;;;5.00;;
359;SDS011;168;48.872;9.226;2023-09-07T15:26:55;5.30;;;4.80;;
359;SDS011;168;48.872;9.226;2023-09-07T15:29:23;4.60;;;4.20;;
359;SDS011;168;48.872;9.226;2023-09-07T15:31:50;5.03;;;4.63;;
359;SDS011;168;48.872;9.226;2023-09-07T15:34:20;5.70;;;4.97;;
359;SDS011;168;48.872;9.226;2023-09-07T15:36:48;5.00;;;4.60;;
359;SDS011;168;48.872;9.226;2023-09-07T15:41:45;5.53;;;5.00;;
359;SDS011;168;48.872;9.226;2023-09-07T15:44:12;5.07;;;4.67;;
359;SDS011;168;48.872;9.226;2023-09-07T15:46:39;5.20;;;4.73;;
359;SDS011;168;48.872;9.226;2023-09-07T15:49:07;5.17;;;4.60;;
359;SDS011;168;48.872;9.226;2023-09-07T15:51:36;6.40;;;5.70;;
359;SDS011;168;48.872;9.226;2023-09-07T15:54:04;5.70;;;5.20;;
359;SDS011;168;48.872;9.226;2023-09-07T15:56:31;4.60;;;4.20;;
359;SDS011;168;48.872;9.226;2023-09-07T15:58:58;5.10;;;4.70;;
359;SDS011;168;48.872;9.226;2023-09-07T16:01:26;4.70;;;4.30;;
359;SDS011;168;48.872;9.226;2023-09-07T16:03:53;4.57;;;4.10;;
359;SDS011;168;48.872;9.226;2023-09-07T16:06:20;7.90;;;4.50;;
359;SDS011;168;48.872;9.226;2023-09-07T16:08:49;7.13;;;4.47;;
359;SDS011;168;48.872;9.226;2023-09-07T16:11:17;5.07;;;4.57;;
359;SDS011;168;48.872;9.226;2023-09-07T16:13:44;5.30;;;4.80;;
359;SDS011;168;48.872;9.226;2023-09-07T16:16:12;5.77;;;5.27;;
359;SDS011;168;48.872;9.226;2023-09-07T16:18:39;5.00;;;4.60;;
359;SDS011;168;48.872;9.226;2023-09-07T16:21:07;5.47;;;4.30;;
359;SDS011;168;48.872;9.226;2023-09-07T16:23:35;5.00;;;4.40;;
359;SDS011;168;48.872;9.226;2023-09-07T16:26:04;5.10;;;4.60;;
359;SDS011;168;48.872;9.226;2023-09-07T16:28:31;6.40;;;4.77;;
359;SDS011;168;48.872;9.226;2023-09-07T16:30:59;5.80;;;4.70;;
359;SDS011;168;48.872;9.226;2023-09-07T16:33:26;4.80;;;4.37;;
359;SDS011;168;48.872;9.226;2023-09-07T16:35:53;4.90;;;4.20;;
359;SDS011;168;48.872;9.226;2023-09-07T16:38:21;7.17;;;4.97;;
359;SDS011;168;48.872;9.226;2023-09-07T16:40:48;4.77;;;4.27;;
359;SDS011;168;48.872;9.226;2023-09-07T16:43:17;5.10;;;4.70;;
359;SDS011;168;48.872;9.226;2023-09-07T16:45:44;5.20;;;4.70;;
359;SDS011;168;48.872;9.226;2023-09-07T16:48:12;4.63;;;4.23;;